Time;durP1;ratioP1;P1;durP2;ratioP2;P2;SDS_P1;SDS_P2;PMS_P1;PMS_P2;Temp;Humidity;BMP_temperature;BMP_pressure;BME280_temperature;BME280_humidity;BME280_pressure;Samples;Min_cycle;Max_cycle;Signal;HPM_P1;HPM_P2
2022/12/06 00:01:11;;;;;;;13.85;6.55;;;;;;;3.93;100.00;101975.38;5092833;28;20051;-82
2022/12/06 00:03:38;;;;;;;10.90;5.68;;;;;;;3.93;100.00;101977.97;5092743;28;20043;-82
2022/12/06 00:06:09;;;;;;;12.27;5.70;;;;;;;3.93;100.00;101975.38;5091413;28;20028;-82
2022/12/06 00:08:35;;;;;;;11.05;5.28;;;;;;;3.93;100.00;101970.25;5092868;28;20361;-82
2022/12/06 00:11:06;;;;;;;11.13;5.70;;;;;;;3.93;100.00;101975.38;5092793;28;20024;-82
2022/12/06 00:13:32;;;;;;;11.15;5.90;;;;;;;3.93;100.00;101977.97;5091644;28;20119;-82
2022/12/06 00:16:02;;;;;;;13.48;6.90;;;;;;;3.92;100.00;101971.06;5093152;28;20044;-82
2022/12/06 00:18:28;;;;;;;11.73;6.07;;;;;;;3.91;100.00;101971.91;5095486;28;20035;-82
2022/12/06 00:20:53;;;;;;;12.30;6.22;;;;;;;3.90;100.00;101972.72;5096292;28;20024;-82
2022/12/06 00:23:18;;;;;;;10.15;5.43;;;;;;;3.92;100.00;101971.94;5095492;28;20498;-82
2022/12/06 00:25:44;;;;;;;8.90;4.60;;;;;;;3.93;100.00;101973.69;5094845;28;20076;-82
2022/12/06 00:28:09;;;;;;;7.13;4.28;;;;;;;3.96;100.00;101972.88;5095392;28;20020;-82
2022/12/06 00:30:34;;;;;;;7.22;4.38;;;;;;;3.96;100.00;101975.47;5096301;28;20024;-82
2022/12/06 00:33:00;;;;;;;8.57;4.55;;;;;;;3.99;100.00;101978.13;5095101;28;20045;-82
2022/12/06 00:35:25;;;;;;;8.40;4.50;;;;;;;3.99;100.00;101973.00;5095530;28;20073;-82
2022/12/06 00:37:50;;;;;;;9.55;5.45;;;;;;;3.99;100.00;101975.56;5095744;28;20051;-82
2022/12/06 00:40:16;;;;;;;9.35;4.68;;;;;;;3.99;100.00;101978.13;5094779;28;20016;-82
2022/12/06 00:42:41;;;;;;;11.05;5.53;;;;;;;3.98;100.00;101974.69;5095697;28;20059;-82
2022/12/06 00:45:07;;;;;;;9.77;5.32;;;;;;;3.98;100.00;101969.56;5095588;28;20099;-82
2022/12/06 00:47:32;;;;;;;9.03;4.80;;;;;;;3.99;100.00;101973.00;5095070;28;20049;-82
2022/12/06 00:49:58;;;;;;;9.02;4.70;;;;;;;3.99;100.00;101975.56;5093894;28;20165;-82
2022/12/06 00:52:23;;;;;;;7.10;4.03;;;;;;;4.01;100.00;101973.91;5074040;28;20016;-82
2022/12/06 00:54:48;;;;;;;9.32;4.75;;;;;;;4.01;100.00;101971.34;5074343;28;20033;-82
2022/12/06 00:57:14;;;;;;;8.88;4.88;;;;;;;4.00;100.00;101970.47;5074973;28;20477;-82
2022/12/06 00:59:39;;;;;;;8.90;4.88;;;;;;;4.00;100.00;101970.47;5074874;28;20021;-82
2022/12/06 01:02:06;;;;;;;9.27;4.68;;;;;;;4.00;100.00;101967.03;5074198;28;20020;-82
2022/12/06 01:04:31;;;;;;;7.57;3.92;;;;;;;4.02;100.00;101973.09;5075051;28;20551;-82
2022/12/06 01:06:57;;;;;;;6.15;3.70;;;;;;;4.02;100.00;101975.66;5075059;28;20050;-82
2022/12/06 01:09:27;;;;;;;7.47;4.45;;;;;;;4.01;100.00;101979.06;5074313;28;20035;-82
2022/12/06 01:11:53;;;;;;;9.20;4.93;;;;;;;3.99;100.00;101973.88;5075090;28;20034;-82
2022/12/06 01:14:18;;;;;;;8.98;4.85;;;;;;;3.99;100.00;101976.44;5074315;28;20493;-82
2022/12/06 01:16:43;;;;;;;10.07;4.53;;;;;;;4.00;100.00;101972.16;5073915;28;20107;-82
2022/12/06 01:19:11;;;;;;;8.82;4.65;;;;;;;3.99;100.00;101979.03;5074601;28;20060;-81
2022/12/06 01:21:36;;;;;;;8.02;4.45;;;;;;;4.00;100.00;101975.59;5088250;28;20028;-82
2022/12/06 01:24:01;;;;;;;7.18;4.05;;;;;;;4.00;100.00;101974.75;5094788;28;20506;-82
2022/12/06 01:26:30;;;;;;;5.43;3.47;;;;;;;4.03;100.00;101974.84;5095013;28;20028;-82
2022/12/06 01:28:57;;;;;;;5.13;3.38;;;;;;;4.05;100.00;101978.34;5093473;28;20051;-82
2022/12/06 01:31:22;;;;;;;;;;;;;;;4.05;100.00;101974.88;5095057;28;20454;-82
2022/12/06 01:33:47;;;;;;;6.77;3.73;;;;;;;4.03;100.00;101972.28;5094587;28;20077;-82
2022/12/06 01:36:22;;;;;;;5.88;3.63;;;;;;;4.04;100.00;101979.16;5093701;28;20085;-82
2022/12/06 01:38:52;;;;;;;6.05;3.28;;;;;;;4.05;100.00;101983.47;5094931;28;20431;-82
2022/12/06 01:41:19;;;;;;;5.07;3.30;;;;;;;4.04;100.00;101976.59;5094632;28;20023;-82
2022/12/06 01:43:44;;;;;;;4.75;3.13;;;;;;;4.05;100.00;101975.75;5093861;28;20040;-82
2022/12/06 01:46:21;;;;;;;6.07;3.20;;;;;;;4.05;100.00;101980.91;5094195;28;20594;-82
2022/12/06 01:48:51;;;;;;;5.75;3.10;;;;;;;4.08;100.00;101978.41;5094448;28;20063;-82
2022/12/06 01:51:17;;;;;;;4.43;2.90;;;;;;;4.08;100.00;101968.13;5093521;28;20411;-82
2022/12/06 01:53:44;;;;;;;4.93;3.13;;;;;;;4.07;100.00;101968.94;5094594;28;20073;-82
2022/12/06 01:56:10;;;;;;;7.40;3.80;;;;;;;4.09;100.00;101969.00;5094090;28;20056;-82
2022/12/06 01:58:39;;;;;;;5.30;3.30;;;;;;;4.09;100.00;101967.31;5093763;28;20051;-82
2022/12/06 02:01:08;;;;;;;10.43;4.90;;;;;;;4.06;100.00;101963.78;5093948;28;20019;-81
2022/12/06 02:03:34;;;;;;;11.15;5.60;;;;;;;4.04;100.00;101974.03;5094354;28;20100;-82
2022/12/06 02:06:03;;;;;;;13.63;6.20;;;;;;;4.01;100.00;101967.06;5093607;28;20032;-83
2022/12/06 02:08:29;;;;;;;15.13;6.70;;;;;;;3.98;100.00;101969.56;5094262;28;20284;-83
2022/12/06 02:10:55;;;;;;;13.07;6.05;;;;;;;4.01;100.00;101966.22;5093520;28;20024;-82
2022/12/06 02:13:21;;;;;;;12.85;5.63;;;;;;;3.99;100.00;101970.44;5076509;28;20052;-82
2022/12/06 02:16:01;;;;;;;10.35;5.28;;;;;;;3.99;100.00;101973.00;5073967;28;20591;-82
2022/12/06 02:18:29;;;;;;;9.60;5.35;;;;;;;3.98;100.00;101967.00;5076312;28;20024;-82
2022/12/06 02:21:04;;;;;;;11.38;5.40;;;;;;;3.96;100.00;101962.63;5093832;28;20024;-82
2022/12/06 02:23:59;;;;;;;12.65;6.00;;;;;;;3.96;100.00;101970.31;5093867;28;20126;-82
2022/12/06 02:26:43;;;;;;;13.50;6.28;;;;;;;3.94;100.00;101972.00;5092927;28;20081;-82
2022/12/06 02:29:37;;;;;;;10.77;4.93;;;;;;;3.94;100.00;101959.16;5093376;28;20498;-82
2022/12/06 02:32:15;;;;;;;11.13;5.10;;;;;;;3.95;100.00;101960.88;5092714;28;20065;-82
2022/12/06 02:35:04;;;;;;;10.18;4.93;;;;;;;3.95;100.00;101960.88;5093492;28;20039;-82
2022/12/06 02:37:38;;;;;;;9.25;4.82;;;;;;;3.94;100.00;101959.16;5093435;28;20028;-82
2022/12/06 02:40:19;;;;;;;10.15;4.80;;;;;;;3.95;100.00;101955.72;5092127;28;20123;-82
2022/12/06 02:42:54;;;;;;;7.65;3.88;;;;;;;3.96;100.00;101960.94;5093339;28;20032;-82
2022/12/06 02:45:28;;;;;;;8.65;3.90;;;;;;;3.97;100.00;101954.09;5093012;28;20035;-82
2022/12/06 02:47:56;;;;;;;7.82;4.20;;;;;;;3.96;100.00;101962.63;5092209;28;20016;-82
2022/12/06 02:50:29;;;;;;;8.88;4.25;;;;;;;3.96;100.00;101962.63;5093078;28;20361;-82
2022/12/06 02:52:58;;;;;;;9.38;4.50;;;;;;;3.95;100.00;101953.16;5093438;28;20028;-82
2022/12/06 02:55:24;;;;;;;8.77;4.40;;;;;;;3.94;100.00;101951.44;5092917;28;20064;-82
2022/12/06 02:57:52;;;;;;;9.88;4.88;;;;;;;3.92;100.00;101943.69;5093107;28;20035;-82
2022/12/06 03:00:42;;;;;;;9.13;4.40;;;;;;;3.94;100.00;101947.16;5091999;28;20086;-81
2022/12/06 03:03:55;;;;;;;9.23;4.47;;;;;;;3.93;100.00;101947.13;5060323;28;20492;-82
2022/12/06 03:06:39;;;;;;;8.20;4.28;;;;;;;3.94;100.00;101954.03;5043908;28;20127;-82
2022/12/06 03:09:04;;;;;;;9.90;4.50;;;;;;;3.95;100.00;101942.88;5072083;28;20032;-82
2022/12/06 03:11:48;;;;;;;8.02;3.55;;;;;;;3.96;100.00;101949.78;5072922;28;20027;-82
2022/12/06 03:14:19;;;;;;;7.05;3.90;;;;;;;3.97;100.00;101956.66;5085250;28;20048;-83
2022/12/06 03:16:58;;;;;;;8.27;4.03;;;;;;;3.96;100.00;101953.22;5092839;28;20042;-82
2022/12/06 03:19:26;;;;;;;9.07;4.28;;;;;;;3.96;100.00;101947.19;5092800;28;20408;-82
2022/12/06 03:22:02;;;;;;;7.95;4.43;;;;;;;3.97;100.00;101949.84;5091976;28;20024;-82
2022/12/06 03:24:32;;;;;;;6.22;3.55;;;;;;;3.99;100.00;101953.34;5092915;28;20073;-82
2022/12/06 03:27:00;;;;;;;7.53;4.00;;;;;;;3.99;100.00;101955.91;5092895;28;20024;-82
2022/12/06 03:29:29;;;;;;;9.05;4.15;;;;;;;3.99;100.00;101960.16;5091936;28;20028;-82
2022/12/06 03:31:59;;;;;;;7.47;4.20;;;;;;;3.99;100.00;101955.91;5093026;28;20028;-82
2022/12/06 03:34:29;;;;;;;11.00;4.90;;;;;;;3.97;100.00;101962.69;5092373;28;20032;-82
2022/12/06 03:36:56;;;;;;;11.05;4.50;;;;;;;3.97;100.00;101961.78;5091944;28;20111;-82
2022/12/06 03:39:34;;;;;;;8.90;4.20;;;;;;;3.98;100.00;101963.53;5092880;28;20364;-82
2022/12/06 03:42:01;;;;;;;8.77;4.28;;;;;;;3.98;100.00;101966.09;5092963;28;20032;-82
2022/12/06 03:44:27;;;;;;;10.55;4.65;;;;;;;3.95;100.00;101956.63;5091570;28;20036;-82
2022/12/06 03:47:05;;;;;;;11.25;5.25;;;;;;;3.95;100.00;101954.06;5092415;28;20480;-82
2022/12/06 03:49:47;;;;;;;12.95;5.40;;;;;;;3.95;100.00;101958.31;5091977;28;20028;-82
2022/12/06 03:52:13;;;;;;;14.57;5.90;;;;;;;3.92;100.00;101951.38;5095055;28;20443;-82
2022/12/06 03:54:39;;;;;;;11.85;5.35;;;;;;;3.93;100.00;101949.69;5096799;28;20058;-83
2022/12/06 03:57:04;;;;;;;8.63;4.70;;;;;;;3.95;100.00;101953.16;5095733;28;20483;-82
2022/12/06 03:59:30;;;;;;;8.30;4.25;;;;;;;3.95;100.00;101948.91;5096601;28;20286;-82
2022/12/06 04:01:55;;;;;;;7.80;4.25;;;;;;;3.97;100.00;101947.28;5096532;28;20028;-82
2022/12/06 04:04:21;;;;;;;7.90;4.20;;;;;;;3.98;100.00;101945.56;5095663;28;20031;-82
2022/12/06 04:06:46;;;;;;;7.28;3.78;;;;;;;3.98;100.00;101955.84;5096752;28;20390;-83
2022/12/06 04:11:55;;;;;;;6.88;3.58;;;;;;;4.01;100.00;101953.38;5095625;28;20090;-82
2022/12/06 04:14:20;;;;;;;7.63;3.88;;;;;;;4.02;100.00;101950.81;5095162;28;20052;-82
2022/12/06 04:19:29;;;;;;;6.18;3.60;;;;;;;4.04;100.00;101943.19;5095666;28;20047;-82
2022/12/06 04:24:38;;;;;;;7.80;3.67;;;;;;;4.03;100.00;101949.16;5095456;28;20042;-82
2022/12/06 04:40:45;;;;;;;5.95;3.00;;;;;;;4.08;100.00;101949.28;5095206;28;20101;-82
2022/12/06 04:45:54;;;;;;;4.15;2.67;;;;;;;4.10;100.00;101956.19;5095644;28;20085;-82
2022/12/06 04:48:20;;;;;;;4.43;2.67;;;;;;;4.12;100.00;101956.22;5095601;28;20028;-82
2022/12/06 04:50:49;;;;;;;4.90;2.65;;;;;;;4.14;100.00;101958.03;5095833;28;20043;-82
2022/12/06 04:53:15;;;;;;;3.10;2.28;;;;;;;4.14;100.00;101957.16;5094599;28;20468;-82
2022/12/06 04:55:47;;;;;;;3.78;2.40;;;;;;;4.15;100.00;101951.19;5095829;28;20404;-82
2022/12/06 04:58:13;;;;;;;3.95;2.42;;;;;;;4.14;100.00;101952.03;5095412;28;20028;-82
2022/12/06 05:00:42;;;;;;;3.20;2.28;;;;;;;4.14;100.00;101949.44;5094463;28;20488;-82
2022/12/06 05:03:09;;;;;;;2.45;2.08;;;;;;;4.15;100.00;101948.63;5093983;28;20036;-82
2022/12/06 05:05:34;;;;;;;;;;;;;;;4.16;100.00;101955.50;5093008;28;20032;-82
2022/12/06 05:07:59;;;;;;;3.13;2.30;;;;;;;4.15;100.00;101951.19;5094633;28;19919;-82
2022/12/06 05:10:25;;;;;;;4.05;2.60;;;;;;;4.13;100.00;101953.72;5094621;28;20024;-82
2022/12/06 05:12:50;;;;;;;7.15;3.40;;;;;;;4.14;100.00;101952.91;5095195;28;20048;-82
2022/12/06 05:15:15;;;;;;;9.30;4.45;;;;;;;4.11;100.00;101952.81;5094501;28;20043;-82
2022/12/06 05:17:41;;;;;;;9.93;4.05;;;;;;;4.11;100.00;101949.38;5077153;28;20038;-82
2022/12/06 05:20:06;;;;;;;9.57;4.18;;;;;;;4.08;100.00;101946.72;5074769;28;20021;-82
2022/12/06 05:22:32;;;;;;;9.15;4.22;;;;;;;4.07;100.00;101943.25;5073982;28;20393;-82
2022/12/06 05:24:57;;;;;;;8.88;4.20;;;;;;;4.07;100.00;101950.97;5074756;28;20035;-82
2022/12/06 05:27:22;;;;;;;7.90;4.10;;;;;;;4.04;100.00;101942.31;5074130;28;20098;-82
2022/12/06 05:29:48;;;;;;;6.88;3.95;;;;;;;4.04;100.00;101947.44;5085935;28;20050;-82
2022/12/06 05:32:13;;;;;;;9.35;4.38;;;;;;;4.01;100.00;101943.09;5094639;28;20107;-83
2022/12/06 05:34:38;;;;;;;11.50;4.55;;;;;;;3.98;100.00;101948.13;5094703;28;20081;-82
2022/12/06 05:37:04;;;;;;;7.97;4.13;;;;;;;3.98;100.00;101940.41;5093764;28;20024;-82
2022/12/06 05:39:29;;;;;;;8.48;3.92;;;;;;;3.96;100.00;101944.63;5094127;28;20383;-82
2022/12/06 05:41:54;;;;;;;9.63;4.22;;;;;;;3.95;100.00;101936.06;5094056;28;20036;-82
2022/12/06 05:44:20;;;;;;;6.65;3.60;;;;;;;3.95;100.00;101941.22;5094634;28;20032;-82
2022/12/06 05:46:45;;;;;;;7.38;3.72;;;;;;;3.93;100.00;101947.13;5094922;28;20078;-82
2022/12/06 05:49:10;;;;;;;6.35;3.47;;;;;;;3.95;100.00;101954.06;5093757;28;20026;-82
2022/12/06 05:51:35;;;;;;;6.35;3.42;;;;;;;3.94;100.00;101952.31;5094610;28;20024;-82
2022/12/06 05:54:04;;;;;;;9.85;3.97;;;;;;;3.93;100.00;101947.13;5094681;28;20028;-82
2022/12/06 05:56:29;;;;;;;6.05;3.50;;;;;;;3.93;100.00;101945.44;5093940;28;20028;-82
2022/12/06 05:58:54;;;;;;;7.57;3.50;;;;;;;3.93;100.00;101944.56;5094284;28;20107;-82
2022/12/06 06:01:19;;;;;;;9.77;3.80;;;;;;;3.93;100.00;101942.00;5094199;28;20024;-82
2022/12/06 06:03:45;;;;;;;8.05;4.00;;;;;;;3.91;100.00;101949.63;5093512;28;20065;-84
2022/12/06 06:06:10;;;;;;;8.02;3.70;;;;;;;3.88;100.00;101939.28;5093046;28;20032;-82
2022/12/06 06:08:35;;;;;;;6.68;3.40;;;;;;;3.90;100.00;101947.03;5093630;28;20031;-83
2022/12/06 06:11:00;;;;;;;6.57;3.53;;;;;;;3.90;100.00;101952.16;5093216;28;20111;-83
2022/12/06 06:13:26;;;;;;;6.25;3.15;;;;;;;3.90;100.00;101947.03;5093311;28;20055;-82
2022/12/06 06:15:51;;;;;;;4.35;2.78;;;;;;;3.91;100.00;101952.22;5093246;28;20101;-82
2022/12/06 06:18:29;;;;;;;5.57;3.40;;;;;;;3.89;100.00;101950.44;5092639;28;20031;-82
2022/12/06 06:21:06;;;;;;;9.15;4.28;;;;;;;3.84;100.00;101953.72;5094202;28;20020;-83
2022/12/06 06:23:41;;;;;;;7.97;3.90;;;;;;;3.84;100.00;101950.28;5093783;28;20028;-83
2022/12/06 06:26:15;;;;;;;5.85;3.53;;;;;;;3.86;100.00;101946.94;5092594;28;20050;-82
2022/12/06 06:28:44;;;;;;;6.05;3.10;;;;;;;3.88;100.00;101951.25;5093669;28;20031;-83
2022/12/06 06:31:09;;;;;;;6.47;3.33;;;;;;;3.85;100.00;101946.91;5092578;28;20023;-82
2022/12/06 06:33:35;;;;;;;5.85;2.90;;;;;;;3.83;100.00;101946.84;5093059;28;20357;-82
2022/12/06 06:36:00;;;;;;;5.65;3.25;;;;;;;3.84;100.00;101951.16;5092870;28;20106;-82
2022/12/06 06:38:25;;;;;;;6.13;3.08;;;;;;;3.84;100.00;101951.16;5092586;28;20050;-82
2022/12/06 06:40:51;;;;;;;4.88;3.10;;;;;;;3.83;100.00;101946.84;5093581;28;20125;-82
2022/12/06 06:43:19;;;;;;;5.50;2.85;;;;;;;3.83;100.00;101948.53;5093093;28;20027;-82
2022/12/06 06:46:01;;;;;;;4.40;2.78;;;;;;;3.80;100.00;101951.91;5092907;28;20020;-82
2022/12/06 06:48:29;;;;;;;10.30;3.60;;;;;;;3.75;100.00;101950.00;5093167;28;20107;-82
2022/12/06 06:50:54;;;;;;;7.13;3.33;;;;;;;3.73;100.00;101941.38;5093603;28;20020;-82
2022/12/06 06:53:20;;;;;;;6.18;3.10;;;;;;;3.72;100.00;101940.50;5092238;28;20020;-82
2022/12/06 06:55:46;;;;;;;5.28;2.80;;;;;;;3.71;100.00;101934.50;5093258;28;20020;-82
2022/12/06 06:58:15;;;;;;;3.90;2.70;;;;;;;3.73;100.00;101942.25;5093057;28;20023;-82
2022/12/06 07:00:41;;;;;;;3.17;2.25;;;;;;;3.71;100.00;101937.06;5092520;28;20456;-82
2022/12/06 07:03:13;;;;;;;2.75;2.00;;;;;;;3.71;100.00;101941.34;5092739;28;20020;-82
2022/12/06 07:05:38;;;;;;;2.78;1.90;;;;;;;3.70;100.00;101944.75;5093473;28;20035;-82
2022/12/06 07:08:04;;;;;;;2.75;2.00;;;;;;;3.67;100.00;101936.94;5092372;28;20082;-81
2022/12/06 07:10:30;;;;;;;2.60;1.90;;;;;;;3.65;100.00;101946.28;5093146;28;20028;-83
2022/12/06 07:12:56;;;;;;;2.50;1.90;;;;;;;3.63;100.00;101950.50;5093016;28;20046;-82
2022/12/06 07:15:21;;;;;;;2.03;1.70;;;;;;;3.62;100.00;101943.59;5092263;28;20107;-83
2022/12/06 07:17:46;;;;;;;2.17;1.88;;;;;;;3.60;100.00;101945.28;5092764;28;20028;-82
2022/12/06 07:20:12;;;;;;;2.45;2.10;;;;;;;3.59;100.00;101951.25;5092299;28;20025;-82
2022/12/06 07:22:37;;;;;;;2.40;1.90;;;;;;;3.59;100.00;101946.97;5092440;28;20020;-82
2022/12/06 07:25:03;;;;;;;2.80;2.05;;;;;;;3.62;100.00;101951.31;5092959;28;20081;-82
2022/12/06 07:27:33;;;;;;;2.35;2.00;;;;;;;3.61;100.00;101947.88;5091663;28;20058;-82
2022/12/06 07:29:58;;;;;;;2.85;2.10;;;;;;;3.63;100.00;101947.91;5093074;28;20024;-82
2022/12/06 07:32:23;;;;;;;2.97;2.10;;;;;;;3.65;100.00;101949.72;5092327;28;20091;-82
2022/12/06 07:34:48;;;;;;;2.25;1.90;;;;;;;3.66;100.00;101956.59;5109391;22;20381;-82
2022/12/06 07:37:17;;;;;;;2.13;1.70;;;;;;;3.65;100.00;101948.84;5114366;22;20052;-83
2022/12/06 07:39:42;;;;;;;1.80;1.70;;;;;;;3.66;100.00;101948.03;5093028;28;20036;-82
2022/12/06 07:45:01;;;;;;;1.98;1.70;;;;;;;3.68;100.00;101946.38;5093272;28;20043;-82
2022/12/06 07:47:41;;;;;;;2.03;1.80;;;;;;;3.68;100.00;101956.66;5092854;28;20044;-82
2022/12/06 07:50:09;;;;;;;2.63;1.70;;;;;;;3.69;100.00;101958.41;5091935;28;20023;-82
2022/12/06 07:52:35;;;;;;;2.53;2.10;;;;;;;3.70;100.00;101963.56;5092786;28;20032;-82
2022/12/06 07:55:03;;;;;;;2.28;1.80;;;;;;;3.71;100.00;101959.31;5092702;28;20060;-82
2022/12/06 07:57:28;;;;;;;1.88;1.60;;;;;;;3.71;100.00;101959.31;5091766;28;20028;-82
2022/12/06 07:59:54;;;;;;;2.97;1.90;;;;;;;3.72;100.00;101966.19;5092441;28;20024;-81
2022/12/06 08:02:22;;;;;;;2.00;1.70;;;;;;;3.73;100.00;101972.19;5091841;28;20036;-82
2022/12/06 08:04:48;;;;;;;2.00;1.70;;;;;;;3.74;100.00;101972.22;5090031;28;20024;-82
2022/12/06 08:07:13;;;;;;;2.00;1.80;;;;;;;3.75;100.00;101968.00;5081117;28;20031;-82
2022/12/06 08:09:39;;;;;;;3.00;1.70;;;;;;;3.76;100.00;101968.03;5082635;28;20036;-83
2022/12/06 08:12:05;;;;;;;2.10;1.83;;;;;;;3.77;100.00;101966.34;5092238;28;20531;-83
2022/12/06 08:14:30;;;;;;;2.30;2.00;;;;;;;3.78;100.00;101966.38;5092426;28;20032;-82
2022/12/06 08:16:56;;;;;;;2.00;1.80;;;;;;;3.79;100.00;101970.69;5091213;28;20472;-82
2022/12/06 08:19:21;;;;;;;1.70;1.60;;;;;;;3.81;100.00;101966.50;5091702;28;20437;-82
2022/12/06 08:21:47;;;;;;;2.00;1.80;;;;;;;3.83;100.00;101966.53;5092310;28;20066;-82
2022/12/06 08:24:12;;;;;;;2.15;1.80;;;;;;;3.85;100.00;101977.72;5091302;28;20112;-82
2022/12/06 08:26:38;;;;;;;1.75;1.65;;;;;;;3.85;100.00;101968.31;5092396;28;20529;-82
2022/12/06 08:29:03;;;;;;;1.88;1.63;;;;;;;3.88;100.00;101964.09;5092104;28;20520;-82
2022/12/06 08:31:30;;;;;;;1.60;1.50;;;;;;;3.89;100.00;101966.69;5091465;28;20024;-82
2022/12/06 08:33:56;;;;;;;2.05;1.85;;;;;;;3.90;100.00;101968.44;5092515;28;20358;-82
2022/12/06 08:36:23;;;;;;;2.75;2.08;;;;;;;3.89;100.00;101966.69;5092162;28;20016;-82
2022/12/06 08:38:49;;;;;;;2.38;1.95;;;;;;;3.90;100.00;101972.72;5092046;28;20544;-82
2022/12/06 08:44:01;;;;;;;2.17;1.98;;;;;;;3.84;100.00;101971.69;5075746;28;20073;-82
2022/12/06 08:46:27;;;;;;;2.55;2.00;;;;;;;3.80;100.00;101975.00;5074499;28;20029;-82
2022/12/06 08:48:53;;;;;;;2.20;1.90;;;;;;;3.77;100.00;101974.06;5075532;28;20024;-82
2022/12/06 08:51:19;;;;;;;3.00;2.00;;;;;;;3.72;100.00;101976.44;5074471;28;20044;-82
2022/12/06 08:53:44;;;;;;;3.45;2.10;;;;;;;3.68;100.00;101982.34;5074427;28;20021;-82
2022/12/06 08:56:10;;;;;;;3.03;2.00;;;;;;;3.66;100.00;101991.66;5075185;28;20024;-82
2022/12/06 08:58:35;;;;;;;2.53;2.00;;;;;;;3.64;100.00;101985.63;5082786;28;20028;-82
2022/12/06 09:01:09;;;;;;;2.45;1.83;;;;;;;3.60;100.00;101989.78;5094858;28;20024;-82
2022/12/06 09:03:34;;;;;;;3.05;2.10;;;;;;;3.57;100.00;101989.69;5095476;28;20020;-82
2022/12/06 09:06:01;;;;;;;3.10;2.20;;;;;;;3.54;100.00;101982.75;5094399;28;20464;-82
2022/12/06 09:08:27;;;;;;;2.80;2.08;;;;;;;3.49;100.00;101986.84;5095225;28;20016;-82
2022/12/06 09:10:52;;;;;;;2.50;2.05;;;;;;;3.49;100.00;101989.41;5094869;28;20161;-82
2022/12/06 09:13:17;;;;;;;3.42;2.25;;;;;;;3.48;100.00;101991.94;5094170;28;20028;-81
2022/12/06 09:15:42;;;;;;;3.28;2.10;;;;;;;3.52;100.00;101989.53;5095345;28;20028;-82
2022/12/06 09:18:08;;;;;;;2.60;2.00;;;;;;;3.53;100.00;101986.16;5094917;28;20032;-82
2022/12/06 09:20:33;;;;;;;2.33;1.90;;;;;;;3.51;100.00;101992.91;5094371;28;20020;-82
2022/12/06 09:22:58;;;;;;;2.40;2.10;;;;;;;3.48;100.00;101997.97;5095079;28;20457;-82
2022/12/06 09:25:24;;;;;;;2.20;2.00;;;;;;;3.48;100.00;101997.09;5094964;28;20059;-82
2022/12/06 09:27:49;;;;;;;2.33;2.10;;;;;;;3.54;100.00;101997.31;5093574;28;20377;-81
2022/12/06 09:30:15;;;;;;;2.83;1.80;;;;;;;3.62;100.00;101995.84;5094336;28;20464;-81
2022/12/06 09:32:40;;;;;;;2.03;1.75;;;;;;;3.71;100.00;101995.28;5094459;28;20051;-82
2022/12/06 09:35:05;;;;;;;2.90;1.92;;;;;;;3.82;100.00;101996.47;5093703;28;20024;-82
2022/12/06 09:37:31;;;;;;;1.75;1.65;;;;;;;3.92;100.00;102004.47;5094328;28;20051;-81
2022/12/06 09:40:02;;;;;;;2.85;1.75;;;;;;;4.01;100.00;102002.16;5094975;28;20027;-82
2022/12/06 09:43:03;;;;;;;1.67;1.58;;;;;;;4.13;100.00;102004.22;5093436;28;20032;-81
2022/12/06 09:45:40;;;;;;;2.17;1.90;;;;;;;4.20;100.00;102000.16;5094284;28;20043;-82
2022/12/06 09:48:26;;;;;;;2.30;1.85;;;;;;;4.30;100.00;102007.28;5093426;28;20024;-82
2022/12/06 09:50:54;;;;;;;1.85;1.52;;;;;;;4.38;100.00;102003.28;5094298;28;20027;-81
2022/12/06 09:53:43;;;;;;;4.97;2.70;;;;;;;4.43;100.00;102001.69;5094464;28;20032;-82
2022/12/06 09:56:23;;;;;;;4.03;2.53;;;;;;;4.52;100.00;101997.63;5093781;28;20024;-82
2022/12/06 09:59:02;;;;;;;3.70;2.40;;;;;;;4.60;100.00;102004.75;5094720;28;20027;-82
2022/12/06 10:01:58;;;;;;;3.35;2.20;;;;;;;4.70;100.00;102007.56;5094476;28;20023;-82
2022/12/06 10:04:54;;;;;;;2.40;1.90;;;;;;;4.76;100.00;101997.47;5093301;28;20126;-82
2022/12/06 10:07:50;;;;;;;2.28;1.92;;;;;;;4.86;100.00;101998.56;5094174;28;20056;-82
2022/12/06 10:10:27;;;;;;;2.35;1.73;;;;;;;4.98;100.00;101993.75;5093368;28;20039;-81
2022/12/06 10:13:30;;;;;;;2.05;1.67;;;;;;;5.07;100.00;101985.41;5094058;28;20028;-82
2022/12/06 10:16:10;;;;;;;1.70;1.60;;;;;;;5.14;100.00;101989.00;5093906;28;20046;-82
2022/12/06 10:18:58;;;;;;;3.05;1.95;;;;;;;5.18;100.00;101978.84;5088913;28;20027;-81
2022/12/06 10:21:33;;;;;;;2.50;1.77;;;;;;;5.22;100.00;101979.78;5114103;28;20019;-82
2022/12/06 10:24:26;;;;;;;2.75;2.03;;;;;;;5.25;100.00;101975.56;5099013;28;20055;-81
2022/12/06 10:26:54;;;;;;;3.35;2.10;;;;;;;5.32;100.00;101978.31;5093833;28;20091;-82
2022/12/06 10:29:43;;;;;;;2.53;2.03;;;;;;;5.35;100.00;101979.25;5080439;28;20024;-81
2022/12/06 10:32:22;;;;;;;5.53;2.70;;;;;;;5.36;100.00;101983.56;5080922;28;20389;-81
2022/12/06 10:34:51;;;;;;;5.18;2.90;;;;;;;5.33;100.00;101983.50;5093451;28;20426;-81
2022/12/06 10:37:48;;;;;;;4.68;2.67;;;;;;;5.35;100.00;101984.41;5092306;28;20040;-81
2022/12/06 10:40:25;;;;;;;6.15;2.70;;;;;;;5.41;100.00;101981.97;5083928;28;20036;-81
2022/12/06 10:42:59;;;;;;;3.00;2.30;;;;;;;5.49;100.00;101987.31;5091680;28;20036;-82
2022/12/06 10:48:28;;;;;;;4.43;2.70;;;;;;;5.54;100.00;101980.56;5091847;28;20043;-81
2022/12/06 10:51:04;;;;;;;4.03;2.50;;;;;;;5.57;100.00;101978.06;5092745;28;20028;-81
2022/12/06 10:53:36;;;;;;;2.83;2.20;;;;;;;5.61;100.00;101988.44;5092481;28;20026;-81
2022/12/06 10:56:13;;;;;;;3.40;1.90;;;;;;;5.67;100.00;101981.72;5093079;28;20036;-82
2022/12/06 10:58:50;;;;;;;;;;;;;;;5.69;100.00;101977.50;5093090;28;20061;-81
2022/12/06 11:01:24;;;;;;;3.60;2.63;;;;;;;5.75;100.00;101981.03;5092192;28;19912;-81
2022/12/06 11:04:09;;;;;;;3.30;2.40;;;;;;;5.78;100.00;101984.56;5093390;28;20038;-82
2022/12/06 11:06:52;;;;;;;2.75;2.13;;;;;;;5.84;100.00;101978.69;5092488;28;20110;-82
2022/12/06 11:09:38;;;;;;;4.78;2.20;;;;;;;5.88;100.00;101978.78;5093007;22;20497;-81
2022/12/06 11:12:20;;;;;;;2.38;2.13;;;;;;;5.91;100.00;101972.81;5072980;28;20024;-81
2022/12/06 11:14:51;;;;;;;2.30;1.88;;;;;;;5.99;100.00;101983.31;5072664;28;20020;-81
2022/12/06 11:17:26;;;;;;;2.10;1.90;;;;;;;6.03;100.00;101975.69;5072520;28;20020;-81
2022/12/06 11:20:26;;;;;;;3.35;2.05;;;;;;;6.03;99.92;101973.13;5072366;28;20048;-82
2022/12/06 11:23:09;;;;;;;3.53;2.10;;;;;;;6.09;98.83;101972.38;5072109;28;20045;-81
2022/12/06 11:25:54;;;;;;;2.72;1.90;;;;;;;6.17;100.00;101973.41;5072795;28;20024;-82
2022/12/06 11:28:35;;;;;;;2.35;1.70;;;;;;;6.27;100.00;101968.44;5072030;28;20051;-81
2022/12/06 11:31:07;;;;;;;1.70;1.60;;;;;;;6.33;100.00;101972.03;5072907;28;20118;-81
2022/12/06 11:33:33;;;;;;;2.13;1.60;;;;;;;6.45;100.00;101970.53;5072089;28;20546;-82
2022/12/06 11:36:02;;;;;;;2.15;1.60;;;;;;;6.46;100.00;101969.69;5072435;28;20107;-81
2022/12/06 11:38:27;;;;;;;1.70;1.60;;;;;;;6.41;98.41;101966.16;5072848;28;20025;-81
2022/12/06 11:40:53;;;;;;;3.80;1.80;;;;;;;6.39;98.12;101963.53;5071976;28;20104;-81
2022/12/06 11:43:31;;;;;;;1.80;1.63;;;;;;;6.40;99.18;101956.69;5072289;28;20024;-81
2022/12/06 11:45:57;;;;;;;2.00;1.80;;;;;;;6.41;98.99;101958.44;5072663;28;20111;-81
2022/12/06 11:48:25;;;;;;;2.13;1.90;;;;;;;6.41;97.99;101955.84;5071584;28;20453;-81
2022/12/06 11:50:52;;;;;;;1.83;1.65;;;;;;;6.40;99.19;101949.81;5072727;28;20317;-82
2022/12/06 11:53:35;;;;;;;3.20;1.80;;;;;;;6.43;98.98;101949.88;5071951;28;20120;-81
2022/12/06 11:56:29;;;;;;;2.08;1.63;;;;;;;6.43;97.75;101947.28;5072087;28;20055;-81
2022/12/06 11:59:15;;;;;;;3.25;1.90;;;;;;;6.36;98.39;101948.00;5069737;28;20025;-85
2022/12/06 12:01:45;;;;;;;4.07;2.50;;;;;;;6.26;93.50;101946.97;5071884;28;20043;-82
2022/12/06 12:04:43;;;;;;;2.40;2.20;;;;;;;6.28;96.11;101940.13;5072355;28;20036;-81
2022/12/06 12:07:08;;;;;;;4.35;2.20;;;;;;;6.34;96.01;101935.09;5071877;28;20114;-80
2022/12/06 12:10:01;;;;;;;6.43;2.40;;;;;;;6.27;91.13;101935.81;5071686;28;20497;-80
2022/12/06 12:15:26;;;;;;;3.30;2.20;;;;;;;6.06;90.18;101931.06;5075649;28;20136;-82